sensor_id;sensor_type;location;lat;lon;timestamp;P1;durP1;ratioP1;P2;durP2;ratioP2
15443;SDS011;7822;48.146;11.576;2022-08-21T00:00:21;2.10;;;1.55;;
15443;SDS011;7822;48.146;11.576;2022-08-21T00:02:51;1.70;;;1.60;;
15443;SDS011;7822;48.146;11.576;2022-08-21T00:05:22;1.52;;;1.42;;
15443;SDS011;7822;48.146;11.576;2022-08-21T00:07:52;1.40;;;1.30;;
15443;SDS011;7822;48.146;11.576;2022-08-21T00:10:22;1.40;;;1.30;;
15443;SDS011;7822;48.146;11.576;2022-08-21T00:16:38;1.45;;;1.33;;
15443;SDS011;7822;48.146;11.576;2022-08-21T00:19:06;1.10;;;1.10;;
15443;SDS011;7822;48.146;11.576;2022-08-21T00:26:37;1.10;;;1.10;;
15443;SDS011;7822;48.146;11.576;2022-08-21T00:29:03;1.30;;;1.23;;
15443;SDS011;7822;48.146;11.576;2022-08-21T00:31:30;2.15;;;1.35;;
15443;SDS011;7822;48.146;11.576;2022-08-21T00:33:56;1.33;;;1.23;;
15443;SDS011;7822;48.146;11.576;2022-08-21T00:36:26;4.18;;;1.15;;
15443;SDS011;7822;48.146;11.576;2022-08-21T00:38:55;1.35;;;1.25;;
15443;SDS011;7822;48.146;11.576;2022-08-21T00:45:26;1.58;;;1.10;;
15443;SDS011;7822;48.146;11.576;2022-08-21T00:47:53;1.55;;;1.20;;
15443;SDS011;7822;48.146;11.576;2022-08-21T03:02:51;1.30;;;1.20;;
15443;SDS011;7822;48.146;11.576;2022-08-21T03:05:19;1.30;;;1.20;;
15443;SDS011;7822;48.146;11.576;2022-08-21T03:07:47;1.17;;;1.17;;
15443;SDS011;7822;48.146;11.576;2022-08-21T03:10:15;1.38;;;1.27;;
15443;SDS011;7822;48.146;11.576;2022-08-21T03:12:43;0.82;;;0.82;;
15443;SDS011;7822;48.146;11.576;2022-08-21T03:15:12;1.30;;;1.20;;
15443;SDS011;7822;48.146;11.576;2022-08-21T03:17:41;1.45;;;1.25;;
15443;SDS011;7822;48.146;11.576;2022-08-21T03:20:11;1.23;;;1.10;;
15443;SDS011;7822;48.146;11.576;2022-08-21T03:22:40;1.48;;;1.38;;
15443;SDS011;7822;48.146;11.576;2022-08-21T03:25:18;2.10;;;1.70;;
15443;SDS011;7822;48.146;11.576;2022-08-21T03:28:06;1.50;;;1.30;;
15443;SDS011;7822;48.146;11.576;2022-08-21T03:30:38;2.40;;;1.40;;
15443;SDS011;7822;48.146;11.576;2022-08-21T03:33:06;2.28;;;1.10;;
15443;SDS011;7822;48.146;11.576;2022-08-21T03:43:14;1.55;;;1.45;;
15443;SDS011;7822;48.146;11.576;2022-08-21T03:45:42;1.40;;;1.30;;
15443;SDS011;7822;48.146;11.576;2022-08-21T03:48:10;3.08;;;1.75;;
15443;SDS011;7822;48.146;11.576;2022-08-21T03:50:39;1.42;;;1.33;;
15443;SDS011;7822;48.146;11.576;2022-08-21T03:53:09;1.40;;;1.30;;
15443;SDS011;7822;48.146;11.576;2022-08-21T03:55:43;1.25;;;1.15;;
15443;SDS011;7822;48.146;11.576;2022-08-21T04:01:05;1.60;;;1.40;;
15443;SDS011;7822;48.146;11.576;2022-08-21T04:03:34;1.58;;;1.35;;
15443;SDS011;7822;48.146;11.576;2022-08-21T04:06:03;1.23;;;1.20;;
15443;SDS011;7822;48.146;11.576;2022-08-21T04:12:13;3.13;;;1.55;;
15443;SDS011;7822;48.146;11.576;2022-08-21T04:18:23;1.48;;;1.42;;
15443;SDS011;7822;48.146;11.576;2022-08-21T04:20:51;1.73;;;1.63;;
15443;SDS011;7822;48.146;11.576;2022-08-21T04:23:21;3.25;;;1.27;;
15443;SDS011;7822;48.146;11.576;2022-08-21T04:25:50;1.55;;;1.45;;
15443;SDS011;7822;48.146;11.576;2022-08-21T04:28:19;4.10;;;1.30;;
15443;SDS011;7822;48.146;11.576;2022-08-21T04:30:48;2.10;;;1.33;;
15443;SDS011;7822;48.146;11.576;2022-08-21T04:33:18;1.83;;;1.60;;
15443;SDS011;7822;48.146;11.576;2022-08-21T04:35:47;1.90;;;1.45;;
15443;SDS011;7822;48.146;11.576;2022-08-21T04:38:15;1.55;;;1.27;;
15443;SDS011;7822;48.146;11.576;2022-08-21T04:40:42;1.60;;;1.42;;
15443;SDS011;7822;48.146;11.576;2022-08-21T04:43:11;2.28;;;1.65;;
15443;SDS011;7822;48.146;11.576;2022-08-21T04:45:41;1.30;;;1.20;;
15443;SDS011;7822;48.146;11.576;2022-08-21T04:51:59;1.50;;;1.40;;
15443;SDS011;7822;48.146;11.576;2022-08-21T04:54:28;2.30;;;1.58;;
15443;SDS011;7822;48.146;11.576;2022-08-21T04:56:58;2.05;;;1.33;;
15443;SDS011;7822;48.146;11.576;2022-08-21T04:59:30;2.35;;;1.52;;
15443;SDS011;7822;48.146;11.576;2022-08-21T05:02:02;1.40;;;1.30;;
15443;SDS011;7822;48.146;11.576;2022-08-21T05:12:09;1.55;;;1.30;;
15443;SDS011;7822;48.146;11.576;2022-08-21T05:18:18;1.52;;;1.25;;
15443;SDS011;7822;48.146;11.576;2022-08-21T05:20:46;1.58;;;1.48;;
15443;SDS011;7822;48.146;11.576;2022-08-21T05:23:14;1.55;;;1.45;;
15443;SDS011;7822;48.146;11.576;2022-08-21T05:25:42;1.83;;;1.73;;
15443;SDS011;7822;48.146;11.576;2022-08-21T05:28:12;1.85;;;1.40;;
15443;SDS011;7822;48.146;11.576;2022-08-21T05:30:40;1.42;;;1.33;;
15443;SDS011;7822;48.146;11.576;2022-08-21T05:33:08;1.40;;;1.30;;
15443;SDS011;7822;48.146;11.576;2022-08-21T05:35:36;1.55;;;1.45;;
15443;SDS011;7822;48.146;11.576;2022-08-21T05:45:41;1.33;;;1.23;;
15443;SDS011;7822;48.146;11.576;2022-08-21T05:55:38;2.72;;;1.52;;
15443;SDS011;7822;48.146;11.576;2022-08-21T05:58:11;1.45;;;1.35;;
15443;SDS011;7822;48.146;11.576;2022-08-21T06:00:42;1.98;;;1.67;;
15443;SDS011;7822;48.146;11.576;2022-08-21T06:06:59;1.98;;;1.33;;
15443;SDS011;7822;48.146;11.576;2022-08-21T06:09:27;1.73;;;1.25;;
15443;SDS011;7822;48.146;11.576;2022-08-21T06:11:54;2.22;;;1.52;;
15443;SDS011;7822;48.146;11.576;2022-08-21T06:14:22;2.63;;;1.35;;
15443;SDS011;7822;48.146;11.576;2022-08-21T06:16:51;2.25;;;1.85;;
15443;SDS011;7822;48.146;11.576;2022-08-21T06:19:19;1.75;;;1.60;;
15443;SDS011;7822;48.146;11.576;2022-08-21T06:21:47;1.92;;;1.67;;
15443;SDS011;7822;48.146;11.576;2022-08-21T06:24:14;1.60;;;1.50;;
15443;SDS011;7822;48.146;11.576;2022-08-21T06:26:42;1.50;;;1.40;;
15443;SDS011;7822;48.146;11.576;2022-08-21T06:29:10;2.00;;;1.20;;
15443;SDS011;7822;48.146;11.576;2022-08-21T06:31:38;1.83;;;1.60;;
15443;SDS011;7822;48.146;11.576;2022-08-21T06:34:08;1.50;;;1.40;;
15443;SDS011;7822;48.146;11.576;2022-08-21T06:36:36;1.85;;;1.50;;
15443;SDS011;7822;48.146;11.576;2022-08-21T06:39:04;1.92;;;1.58;;
15443;SDS011;7822;48.146;11.576;2022-08-21T06:41:50;1.27;;;1.00;;
15443;SDS011;7822;48.146;11.576;2022-08-21T06:44:19;2.65;;;1.88;;
15443;SDS011;7822;48.146;11.576;2022-08-21T06:46:46;1.48;;;1.38;;
15443;SDS011;7822;48.146;11.576;2022-08-21T06:49:16;2.03;;;1.67;;
15443;SDS011;7822;48.146;11.576;2022-08-21T06:51:47;2.15;;;1.80;;
15443;SDS011;7822;48.146;11.576;2022-08-21T06:54:14;1.65;;;1.55;;
15443;SDS011;7822;48.146;11.576;2022-08-21T06:56:42;1.85;;;1.63;;
15443;SDS011;7822;48.146;11.576;2022-08-21T06:59:10;3.80;;;1.85;;
15443;SDS011;7822;48.146;11.576;2022-08-21T07:01:38;2.00;;;1.80;;
15443;SDS011;7822;48.146;11.576;2022-08-21T07:04:05;2.15;;;1.90;;
15443;SDS011;7822;48.146;11.576;2022-08-21T07:06:35;2.95;;;1.80;;
15443;SDS011;7822;48.146;11.576;2022-08-21T07:09:02;2.63;;;1.95;;
15443;SDS011;7822;48.146;11.576;2022-08-21T07:11:30;1.60;;;1.50;;
15443;SDS011;7822;48.146;11.576;2022-08-21T07:14:10;3.08;;;2.17;;
15443;SDS011;7822;48.146;11.576;2022-08-21T07:16:45;2.38;;;1.85;;
15443;SDS011;7822;48.146;11.576;2022-08-21T07:19:13;2.20;;;1.75;;
15443;SDS011;7822;48.146;11.576;2022-08-21T07:21:43;2.25;;;2.00;;
15443;SDS011;7822;48.146;11.576;2022-08-21T07:24:11;2.55;;;2.22;;
15443;SDS011;7822;48.146;11.576;2022-08-21T07:26:39;2.60;;;2.40;;
15443;SDS011;7822;48.146;11.576;2022-08-21T07:29:07;3.38;;;2.53;;
15443;SDS011;7822;48.146;11.576;2022-08-21T07:35:23;3.38;;;2.63;;
15443;SDS011;7822;48.146;11.576;2022-08-21T07:37:52;3.30;;;3.00;;
15443;SDS011;7822;48.146;11.576;2022-08-21T07:44:00;3.53;;;2.35;;
15443;SDS011;7822;48.146;11.576;2022-08-21T07:46:31;3.05;;;2.75;;
15443;SDS011;7822;48.146;11.576;2022-08-21T07:48:59;3.92;;;3.22;;
15443;SDS011;7822;48.146;11.576;2022-08-21T07:51:27;3.08;;;2.88;;
15443;SDS011;7822;48.146;11.576;2022-08-21T07:53:57;4.47;;;2.70;;
15443;SDS011;7822;48.146;11.576;2022-08-21T07:56:26;3.30;;;2.75;;
15443;SDS011;7822;48.146;11.576;2022-08-21T07:58:54;4.50;;;2.70;;
15443;SDS011;7822;48.146;11.576;2022-08-21T08:01:23;2.75;;;2.45;;
15443;SDS011;7822;48.146;11.576;2022-08-21T08:03:51;2.95;;;2.63;;
15443;SDS011;7822;48.146;11.576;2022-08-21T08:06:19;3.10;;;2.83;;
15443;SDS011;7822;48.146;11.576;2022-08-21T08:08:47;3.53;;;3.22;;
15443;SDS011;7822;48.146;11.576;2022-08-21T08:11:16;5.93;;;3.88;;
15443;SDS011;7822;48.146;11.576;2022-08-21T08:13:44;3.15;;;2.83;;
15443;SDS011;7822;48.146;11.576;2022-08-21T08:16:13;3.50;;;3.20;;
15443;SDS011;7822;48.146;11.576;2022-08-21T08:18:41;3.42;;;3.03;;
15443;SDS011;7822;48.146;11.576;2022-08-21T08:21:10;3.30;;;3.00;;
15443;SDS011;7822;48.146;11.576;2022-08-21T08:23:39;3.38;;;2.85;;
15443;SDS011;7822;48.146;11.576;2022-08-21T08:26:07;4.35;;;3.70;;
15443;SDS011;7822;48.146;11.576;2022-08-21T08:33:25;3.70;;;3.40;;
15443;SDS011;7822;48.146;11.576;2022-08-21T08:35:53;3.78;;;2.95;;
15443;SDS011;7822;48.146;11.576;2022-08-21T08:48:47;4.22;;;3.33;;
15443;SDS011;7822;48.146;11.576;2022-08-21T08:51:21;3.70;;;3.40;;
15443;SDS011;7822;48.146;11.576;2022-08-21T08:53:54;3.70;;;3.40;;
15443;SDS011;7822;48.146;11.576;2022-08-21T08:56:28;3.67;;;3.38;;
15443;SDS011;7822;48.146;11.576;2022-08-21T08:59:01;3.28;;;2.88;;
15443;SDS011;7822;48.146;11.576;2022-08-21T09:09:28;4.03;;;3.60;;
15443;SDS011;7822;48.146;11.576;2022-08-21T09:12:04;3.22;;;2.92;;
15443;SDS011;7822;48.146;11.576;2022-08-21T09:14:39;3.22;;;2.92;;
15443;SDS011;7822;48.146;11.576;2022-08-21T09:17:20;2.92;;;2.72;;
15443;SDS011;7822;48.146;11.576;2022-08-21T09:20:03;4.07;;;3.65;;
15443;SDS011;7822;48.146;11.576;2022-08-21T09:26:24;3.60;;;3.30;;
15443;SDS011;7822;48.146;11.576;2022-08-21T09:28:56;3.85;;;3.20;;
15443;SDS011;7822;48.146;11.576;2022-08-21T09:31:27;3.97;;;3.40;;
15443;SDS011;7822;48.146;11.576;2022-08-21T09:33:57;3.70;;;3.40;;
15443;SDS011;7822;48.146;11.576;2022-08-21T09:36:28;3.33;;;2.90;;
15443;SDS011;7822;48.146;11.576;2022-08-21T09:39:03;2.58;;;2.38;;
15443;SDS011;7822;48.146;11.576;2022-08-21T09:41:33;2.95;;;2.63;;
15443;SDS011;7822;48.146;11.576;2022-08-21T09:44:02;3.30;;;2.90;;
15443;SDS011;7822;48.146;11.576;2022-08-21T09:50:21;4.07;;;3.63;;
15443;SDS011;7822;48.146;11.576;2022-08-21T09:52:55;4.47;;;3.15;;
15443;SDS011;7822;48.146;11.576;2022-08-21T09:55:30;2.70;;;2.50;;
15443;SDS011;7822;48.146;11.576;2022-08-21T09:58:19;2.97;;;2.75;;
15443;SDS011;7822;48.146;11.576;2022-08-21T10:00:56;3.25;;;2.95;;
15443;SDS011;7822;48.146;11.576;2022-08-21T10:03:25;2.78;;;2.58;;
15443;SDS011;7822;48.146;11.576;2022-08-21T10:05:55;3.22;;;2.88;;
15443;SDS011;7822;48.146;11.576;2022-08-21T10:08:25;3.40;;;3.10;;
15443;SDS011;7822;48.146;11.576;2022-08-21T10:10:56;3.15;;;2.85;;
15443;SDS011;7822;48.146;11.576;2022-08-21T10:13:39;3.45;;;2.80;;
15443;SDS011;7822;48.146;11.576;2022-08-21T10:16:21;2.58;;;2.30;;
15443;SDS011;7822;48.146;11.576;2022-08-21T10:19:05;3.47;;;3.15;;
15443;SDS011;7822;48.146;11.576;2022-08-21T10:21:41;3.47;;;2.88;;
15443;SDS011;7822;48.146;11.576;2022-08-21T10:29:13;4.22;;;3.25;;
15443;SDS011;7822;48.146;11.576;2022-08-21T10:31:52;3.97;;;2.90;;
15443;SDS011;7822;48.146;11.576;2022-08-21T10:34:43;3.17;;;2.40;;
15443;SDS011;7822;48.146;11.576;2022-08-21T10:37:22;2.92;;;2.72;;
15443;SDS011;7822;48.146;11.576;2022-08-21T10:40:02;2.95;;;2.60;;
15443;SDS011;7822;48.146;11.576;2022-08-21T10:42:45;2.67;;;2.40;;
15443;SDS011;7822;48.146;11.576;2022-08-21T10:45:25;2.90;;;2.50;;
15443;SDS011;7822;48.146;11.576;2022-08-21T10:48:04;2.20;;;2.10;;
15443;SDS011;7822;48.146;11.576;2022-08-21T10:50:35;3.55;;;2.63;;
15443;SDS011;7822;48.146;11.576;2022-08-21T10:53:26;3.45;;;3.08;;
15443;SDS011;7822;48.146;11.576;2022-08-21T10:56:05;3.15;;;2.95;;
15443;SDS011;7822;48.146;11.576;2022-08-21T10:58:40;3.13;;;2.90;;
15443;SDS011;7822;48.146;11.576;2022-08-21T11:01:17;3.25;;;2.83;;
15443;SDS011;7822;48.146;11.576;2022-08-21T11:03:54;2.97;;;2.70;;
15443;SDS011;7822;48.146;11.576;2022-08-21T11:06:34;2.72;;;2.55;;
15443;SDS011;7822;48.146;11.576;2022-08-21T11:09:09;3.05;;;2.85;;
15443;SDS011;7822;48.146;11.576;2022-08-21T11:19:10;2.90;;;2.70;;
15443;SDS011;7822;48.146;11.576;2022-08-21T11:21:44;3.58;;;2.58;;
15443;SDS011;7822;48.146;11.576;2022-08-21T11:24:19;3.15;;;2.85;;
15443;SDS011;7822;48.146;11.576;2022-08-21T11:26:58;3.15;;;2.88;;
15443;SDS011;7822;48.146;11.576;2022-08-21T11:37:06;3.00;;;2.55;;
15443;SDS011;7822;48.146;11.576;2022-08-21T11:39:41;2.53;;;2.33;;
15443;SDS011;7822;48.146;11.576;2022-08-21T11:42:21;2.97;;;2.78;;
15443;SDS011;7822;48.146;11.576;2022-08-21T11:44:58;3.38;;;3.08;;
15443;SDS011;7822;48.146;11.576;2022-08-21T11:47:45;2.60;;;2.40;;
15443;SDS011;7822;48.146;11.576;2022-08-21T11:50:23;2.58;;;2.38;;
15443;SDS011;7822;48.146;11.576;2022-08-21T11:53:03;3.10;;;2.63;;
15443;SDS011;7822;48.146;11.576;2022-08-21T11:55:36;2.38;;;2.17;;
15443;SDS011;7822;48.146;11.576;2022-08-21T11:58:11;3.00;;;2.75;;
15443;SDS011;7822;48.146;11.576;2022-08-21T12:00:46;4.13;;;2.63;;
15443;SDS011;7822;48.146;11.576;2022-08-21T12:03:21;2.67;;;2.20;;
15443;SDS011;7822;48.146;11.576;2022-08-21T12:05:53;2.17;;;2.05;;
15443;SDS011;7822;48.146;11.576;2022-08-21T12:08:28;2.90;;;2.47;;
15443;SDS011;7822;48.146;11.576;2022-08-21T12:11:00;3.55;;;3.00;;
15443;SDS011;7822;48.146;11.576;2022-08-21T12:13:33;2.72;;;2.40;;
15443;SDS011;7822;48.146;11.576;2022-08-21T12:16:08;2.60;;;2.40;;
15443;SDS011;7822;48.146;11.576;2022-08-21T12:18:38;2.50;;;2.30;;
15443;SDS011;7822;48.146;11.576;2022-08-21T12:21:17;2.30;;;2.10;;
15443;SDS011;7822;48.146;11.576;2022-08-21T12:38:32;2.83;;;2.47;;
15443;SDS011;7822;48.146;11.576;2022-08-21T12:41:09;3.08;;;2.40;;
15443;SDS011;7822;48.146;11.576;2022-08-21T12:43:43;3.38;;;2.50;;
15443;SDS011;7822;48.146;11.576;2022-08-21T12:46:18;2.67;;;2.47;;
15443;SDS011;7822;48.146;11.576;2022-08-21T12:48:57;2.70;;;2.50;;
15443;SDS011;7822;48.146;11.576;2022-08-21T12:51:29;2.83;;;2.63;;
15443;SDS011;7822;48.146;11.576;2022-08-21T12:54:03;3.13;;;2.83;;
15443;SDS011;7822;48.146;11.576;2022-08-21T12:56:31;2.65;;;2.45;;
15443;SDS011;7822;48.146;11.576;2022-08-21T12:59:02;2.67;;;2.42;;
15443;SDS011;7822;48.146;11.576;2022-08-21T13:01:32;2.78;;;2.22;;
15443;SDS011;7822;48.146;11.576;2022-08-21T13:04:08;2.40;;;2.20;;
15443;SDS011;7822;48.146;11.576;2022-08-21T13:06:39;2.72;;;2.45;;
15443;SDS011;7822;48.146;11.576;2022-08-21T13:09:12;3.80;;;2.53;;
15443;SDS011;7822;48.146;11.576;2022-08-21T13:11:43;3.00;;;2.80;;
15443;SDS011;7822;48.146;11.576;2022-08-21T13:14:17;2.42;;;1.92;;
15443;SDS011;7822;48.146;11.576;2022-08-21T13:16:53;2.70;;;2.50;;
15443;SDS011;7822;48.146;11.576;2022-08-21T13:19:22;2.70;;;2.50;;
15443;SDS011;7822;48.146;11.576;2022-08-21T13:37:05;2.67;;;2.30;;
15443;SDS011;7822;48.146;11.576;2022-08-21T13:39:35;2.83;;;2.63;;
15443;SDS011;7822;48.146;11.576;2022-08-21T13:42:04;2.30;;;2.08;;
15443;SDS011;7822;48.146;11.576;2022-08-21T13:44:39;3.60;;;2.67;;
15443;SDS011;7822;48.146;11.576;2022-08-21T13:47:10;2.65;;;2.38;;
15443;SDS011;7822;48.146;11.576;2022-08-21T13:49:41;2.40;;;2.20;;
15443;SDS011;7822;48.146;11.576;2022-08-21T13:56:00;2.53;;;2.30;;
15443;SDS011;7822;48.146;11.576;2022-08-21T13:58:31;2.75;;;2.53;;
15443;SDS011;7822;48.146;11.576;2022-08-21T14:01:15;2.50;;;2.30;;
15443;SDS011;7822;48.146;11.576;2022-08-21T14:03:47;2.75;;;2.30;;
15443;SDS011;7822;48.146;11.576;2022-08-21T14:06:18;2.80;;;2.60;;
15443;SDS011;7822;48.146;11.576;2022-08-21T14:16:25;5.05;;;2.50;;
15443;SDS011;7822;48.146;11.576;2022-08-21T14:19:08;2.70;;;2.50;;
15443;SDS011;7822;48.146;11.576;2022-08-21T14:21:38;2.47;;;2.28;;
15443;SDS011;7822;48.146;11.576;2022-08-21T14:24:10;3.00;;;2.80;;
15443;SDS011;7822;48.146;11.576;2022-08-21T14:26:46;2.75;;;2.55;;
15443;SDS011;7822;48.146;11.576;2022-08-21T14:29:18;2.50;;;2.30;;
15443;SDS011;7822;48.146;11.576;2022-08-21T14:31:51;2.72;;;2.30;;
15443;SDS011;7822;48.146;11.576;2022-08-21T14:34:20;2.60;;;2.40;;
15443;SDS011;7822;48.146;11.576;2022-08-21T14:36:48;3.08;;;2.60;;
15443;SDS011;7822;48.146;11.576;2022-08-21T14:39:17;3.00;;;2.70;;
15443;SDS011;7822;48.146;11.576;2022-08-21T14:41:44;2.60;;;2.40;;
15443;SDS011;7822;48.146;11.576;2022-08-21T14:44:15;2.45;;;2.25;;
15443;SDS011;7822;48.146;11.576;2022-08-21T14:46:44;3.30;;;3.00;;
15443;SDS011;7822;48.146;11.576;2022-08-21T14:49:23;2.45;;;2.25;;
15443;SDS011;7822;48.146;11.576;2022-08-21T14:51:54;3.17;;;2.55;;
15443;SDS011;7822;48.146;11.576;2022-08-21T14:54:25;2.75;;;2.55;;
15443;SDS011;7822;48.146;11.576;2022-08-21T14:56:57;3.38;;;2.38;;
15443;SDS011;7822;48.146;11.576;2022-08-21T14:59:27;2.92;;;2.60;;
15443;SDS011;7822;48.146;11.576;2022-08-21T15:01:55;2.53;;;2.30;;
15443;SDS011;7822;48.146;11.576;2022-08-21T15:04:24;2.83;;;2.63;;
15443;SDS011;7822;48.146;11.576;2022-08-21T15:06:52;3.25;;;2.70;;
15443;SDS011;7822;48.146;11.576;2022-08-21T15:09:20;2.53;;;2.30;;
15443;SDS011;7822;48.146;11.576;2022-08-21T15:11:47;2.67;;;2.47;;
15443;SDS011;7822;48.146;11.576;2022-08-21T15:14:17;2.72;;;2.53;;
15443;SDS011;7822;48.146;11.576;2022-08-21T15:16:47;3.45;;;3.15;;
15443;SDS011;7822;48.146;11.576;2022-08-21T15:19:16;2.88;;;2.67;;
15443;SDS011;7822;48.146;11.576;2022-08-21T15:21:45;4.20;;;2.88;;
15443;SDS011;7822;48.146;11.576;2022-08-21T15:24:13;2.72;;;2.50;;
15443;SDS011;7822;48.146;11.576;2022-08-21T15:26:41;3.45;;;3.10;;
15443;SDS011;7822;48.146;11.576;2022-08-21T15:29:10;3.10;;;2.85;;
15443;SDS011;7822;48.146;11.576;2022-08-21T15:31:40;3.75;;;2.90;;
15443;SDS011;7822;48.146;11.576;2022-08-21T15:34:17;3.70;;;3.33;;
15443;SDS011;7822;48.146;11.576;2022-08-21T15:36:49;4.30;;;3.55;;
15443;SDS011;7822;48.146;11.576;2022-08-21T15:39:21;3.20;;;3.00;;
15443;SDS011;7822;48.146;11.576;2022-08-21T15:42:18;3.97;;;3.58;;
15443;SDS011;7822;48.146;11.576;2022-08-21T15:44:47;3.35;;;3.05;;
15443;SDS011;7822;48.146;11.576;2022-08-21T15:47:19;3.83;;;3.53;;
15443;SDS011;7822;48.146;11.576;2022-08-21T15:50:35;3.55;;;2.70;;
15443;SDS011;7822;48.146;11.576;2022-08-21T15:54:07;3.40;;;3.10;;
15443;SDS011;7822;48.146;11.576;2022-08-21T15:56:37;3.30;;;3.00;;
15443;SDS011;7822;48.146;11.576;2022-08-21T15:59:14;3.22;;;2.92;;
15443;SDS011;7822;48.146;11.576;2022-08-21T16:06:07;3.45;;;3.15;;
15443;SDS011;7822;48.146;11.576;2022-08-21T16:08:35;4.68;;;3.08;;
15443;SDS011;7822;48.146;11.576;2022-08-21T16:14:42;3.40;;;3.05;;
15443;SDS011;7822;48.146;11.576;2022-08-21T16:17:10;3.13;;;2.83;;
15443;SDS011;7822;48.146;11.576;2022-08-21T16:20:38;4.85;;;3.13;;
15443;SDS011;7822;48.146;11.576;2022-08-21T16:23:06;3.65;;;3.28;;
15443;SDS011;7822;48.146;11.576;2022-08-21T16:30:25;3.33;;;3.03;;
15443;SDS011;7822;48.146;11.576;2022-08-21T16:32:54;4.00;;;3.42;;
15443;SDS011;7822;48.146;11.576;2022-08-21T16:35:59;3.88;;;3.53;;
15443;SDS011;7822;48.146;11.576;2022-08-21T16:39:08;3.95;;;3.60;;
15443;SDS011;7822;48.146;11.576;2022-08-21T16:41:36;3.30;;;3.00;;
15443;SDS011;7822;48.146;11.576;2022-08-21T16:44:05;3.42;;;3.15;;
15443;SDS011;7822;48.146;11.576;2022-08-21T16:46:38;3.33;;;3.00;;
15443;SDS011;7822;48.146;11.576;2022-08-21T16:49:07;2.55;;;2.35;;
15443;SDS011;7822;48.146;11.576;2022-08-21T16:51:35;3.30;;;3.00;;
15443;SDS011;7822;48.146;11.576;2022-08-21T16:54:03;3.92;;;3.33;;
15443;SDS011;7822;48.146;11.576;2022-08-21T16:56:31;3.97;;;3.58;;
15443;SDS011;7822;48.146;11.576;2022-08-21T16:59:08;3.63;;;3.33;;
15443;SDS011;7822;48.146;11.576;2022-08-21T17:01:50;3.80;;;3.50;;
15443;SDS011;7822;48.146;11.576;2022-08-21T17:04:19;3.97;;;3.33;;
15443;SDS011;7822;48.146;11.576;2022-08-21T17:06:47;3.80;;;3.50;;
15443;SDS011;7822;48.146;11.576;2022-08-21T17:24:17;4.50;;;4.10;;
15443;SDS011;7822;48.146;11.576;2022-08-21T17:26:45;3.97;;;3.67;;
15443;SDS011;7822;48.146;11.576;2022-08-21T17:32:54;3.67;;;3.38;;
15443;SDS011;7822;48.146;11.576;2022-08-21T17:38:38;6.05;;;3.40;;
15443;SDS011;7822;48.146;11.576;2022-08-21T17:42:12;3.72;;;3.22;;
15443;SDS011;7822;48.146;11.576;2022-08-21T17:44:41;3.42;;;3.13;;
15443;SDS011;7822;48.146;11.576;2022-08-21T17:47:10;4.15;;;3.20;;
15443;SDS011;7822;48.146;11.576;2022-08-21T17:49:40;3.35;;;3.05;;
15443;SDS011;7822;48.146;11.576;2022-08-21T17:55:48;4.97;;;3.60;;
15443;SDS011;7822;48.146;11.576;2022-08-21T17:58:18;3.75;;;3.45;;
15443;SDS011;7822;48.146;11.576;2022-08-21T18:07:26;5.93;;;4.20;;
15443;SDS011;7822;48.146;11.576;2022-08-21T18:09:58;3.55;;;3.25;;
15443;SDS011;7822;48.146;11.576;2022-08-21T18:12:26;3.85;;;3.55;;
15443;SDS011;7822;48.146;11.576;2022-08-21T18:18:42;4.10;;;3.72;;
15443;SDS011;7822;48.146;11.576;2022-08-21T18:24:29;4.13;;;3.72;;
15443;SDS011;7822;48.146;11.576;2022-08-21T18:26:57;4.15;;;3.67;;
15443;SDS011;7822;48.146;11.576;2022-08-21T18:29:25;3.90;;;3.50;;
15443;SDS011;7822;48.146;11.576;2022-08-21T18:34:58;4.57;;;4.10;;
15443;SDS011;7822;48.146;11.576;2022-08-21T18:37:28;4.38;;;4.00;;
15443;SDS011;7822;48.146;11.576;2022-08-21T18:39:57;4.47;;;4.03;;
15443;SDS011;7822;48.146;11.576;2022-08-21T18:46:12;4.35;;;3.72;;
15443;SDS011;7822;48.146;11.576;2022-08-21T18:48:41;4.03;;;3.65;;
15443;SDS011;7822;48.146;11.576;2022-08-21T18:51:11;5.00;;;4.03;;
15443;SDS011;7822;48.146;11.576;2022-08-21T18:53:39;4.07;;;3.78;;
15443;SDS011;7822;48.146;11.576;2022-08-21T18:59:48;5.47;;;4.35;;
15443;SDS011;7822;48.146;11.576;2022-08-21T19:02:16;4.97;;;3.92;;
15443;SDS011;7822;48.146;11.576;2022-08-21T19:04:44;4.05;;;3.65;;
15443;SDS011;7822;48.146;11.576;2022-08-21T19:10:56;5.28;;;4.78;;
15443;SDS011;7822;48.146;11.576;2022-08-21T19:17:08;5.10;;;4.45;;
15443;SDS011;7822;48.146;11.576;2022-08-21T19:19:35;6.65;;;4.82;;
15443;SDS011;7822;48.146;11.576;2022-08-21T19:22:04;5.05;;;4.57;;
15443;SDS011;7822;48.146;11.576;2022-08-21T19:24:37;5.15;;;4.60;;
15443;SDS011;7822;48.146;11.576;2022-08-21T19:30:58;4.30;;;3.83;;
15443;SDS011;7822;48.146;11.576;2022-08-21T19:33:30;3.92;;;3.60;;
15443;SDS011;7822;48.146;11.576;2022-08-21T19:36:00;4.07;;;3.67;;
15443;SDS011;7822;48.146;11.576;2022-08-21T19:38:28;3.75;;;3.28;;
15443;SDS011;7822;48.146;11.576;2022-08-21T19:41:16;4.25;;;3.63;;
15443;SDS011;7822;48.146;11.576;2022-08-21T19:43:48;4.30;;;3.55;;
15443;SDS011;7822;48.146;11.576;2022-08-21T19:46:21;7.20;;;3.80;;
15443;SDS011;7822;48.146;11.576;2022-08-21T19:48:52;3.97;;;3.58;;
15443;SDS011;7822;48.146;11.576;2022-08-21T19:51:21;4.00;;;3.60;;
15443;SDS011;7822;48.146;11.576;2022-08-21T20:05:12;3.72;;;3.38;;
15443;SDS011;7822;48.146;11.576;2022-08-21T20:07:43;3.45;;;3.15;;
15443;SDS011;7822;48.146;11.576;2022-08-21T20:14:00;5.28;;;3.97;;
15443;SDS011;7822;48.146;11.576;2022-08-21T20:20:09;4.88;;;4.00;;
15443;SDS011;7822;48.146;11.576;2022-08-21T20:22:38;4.38;;;3.97;;
15443;SDS011;7822;48.146;11.576;2022-08-21T20:25:07;5.22;;;4.72;;
15443;SDS011;7822;48.146;11.576;2022-08-21T20:27:35;4.18;;;3.78;;
15443;SDS011;7822;48.146;11.576;2022-08-21T20:33:53;5.03;;;4.20;;
15443;SDS011;7822;48.146;11.576;2022-08-21T20:40:10;6.15;;;4.57;;
15443;SDS011;7822;48.146;11.576;2022-08-21T20:42:40;5.22;;;4.68;;
15443;SDS011;7822;48.146;11.576;2022-08-21T20:45:12;5.68;;;4.65;;
15443;SDS011;7822;48.146;11.576;2022-08-21T20:51:36;7.00;;;5.65;;
15443;SDS011;7822;48.146;11.576;2022-08-21T20:54:07;7.10;;;4.97;;
15443;SDS011;7822;48.146;11.576;2022-08-21T20:56:47;5.32;;;4.82;;
15443;SDS011;7822;48.146;11.576;2022-08-21T20:59:22;6.32;;;5.55;;
15443;SDS011;7822;48.146;11.576;2022-08-21T21:02:19;7.50;;;5.80;;
15443;SDS011;7822;48.146;11.576;2022-08-21T21:04:54;5.80;;;4.90;;
15443;SDS011;7822;48.146;11.576;2022-08-21T21:07:32;7.80;;;5.93;;
15443;SDS011;7822;48.146;11.576;2022-08-21T21:10:05;6.13;;;5.53;;
15443;SDS011;7822;48.146;11.576;2022-08-21T21:12:41;6.47;;;5.40;;
15443;SDS011;7822;48.146;11.576;2022-08-21T21:19:07;5.63;;;4.97;;
15443;SDS011;7822;48.146;11.576;2022-08-21T21:21:46;5.45;;;4.88;;
15443;SDS011;7822;48.146;11.576;2022-08-21T21:24:18;5.82;;;5.20;;
15443;SDS011;7822;48.146;11.576;2022-08-21T21:26:55;5.88;;;5.28;;
15443;SDS011;7822;48.146;11.576;2022-08-21T21:29:39;5.53;;;5.03;;
15443;SDS011;7822;48.146;11.576;2022-08-21T21:32:13;5.55;;;4.95;;
15443;SDS011;7822;48.146;11.576;2022-08-21T21:34:44;5.93;;;5.32;;
15443;SDS011;7822;48.146;11.576;2022-08-21T21:44:57;6.57;;;5.35;;
15443;SDS011;7822;48.146;11.576;2022-08-21T21:47:39;6.13;;;5.53;;
15443;SDS011;7822;48.146;11.576;2022-08-21T21:50:18;5.82;;;5.32;;
15443;SDS011;7822;48.146;11.576;2022-08-21T21:52:58;6.47;;;5.20;;
15443;SDS011;7822;48.146;11.576;2022-08-21T21:55:45;8.65;;;5.47;;
15443;SDS011;7822;48.146;11.576;2022-08-21T21:58:26;7.32;;;6.07;;
15443;SDS011;7822;48.146;11.576;2022-08-21T22:16:31;5.85;;;5.25;;
15443;SDS011;7822;48.146;11.576;2022-08-21T22:19:02;6.13;;;5.43;;
15443;SDS011;7822;48.146;11.576;2022-08-21T22:21:39;6.65;;;5.40;;
15443;SDS011;7822;48.146;11.576;2022-08-21T22:24:13;5.38;;;4.85;;
15443;SDS011;7822;48.146;11.576;2022-08-21T22:26:47;5.38;;;4.90;;